Time,TemperatureF,DewpointF,PressureIn,WindDirection,WindDirectionDegrees,WindSpeedMPH,WindSpeedGustMPH,Humidity,HourlyPrecipIn,Conditions,Clouds,dailyrainin,SoftwareType,DateUTC
2013-04-20 00:07:00,63.0,47.5,30.09,NNE,22,0.0,0.0,57,0.00,,,-99.99,Weather View 32 v70,2013-04-20 07:07:00,
2013-04-20 00:15:00,63.0,48.0,30.09,North,0,0.0,0.0,58,0.00,,,-99.99,Weather View 32 v70,2013-04-20 07:15:00,
2013-04-20 00:22:00,63.0,48.0,30.09,North,0,0.0,0.0,58,0.00,,,-99.99,Weather View 32 v70,2013-04-20 07:22:00,
2013-04-20 00:37:00,63.0,48.0,30.08,NNE,22,0.0,0.0,58,0.00,,,-99.99,Weather View 32 v70,2013-04-20 07:37:00,
2013-04-20 00:52:00,62.0,47.5,30.08,North,0,0.0,0.0,59,0.00,,,-99.99,Weather View 32 v70,2013-04-20 07:52:00,
2013-04-20 01:07:00,62.0,47.9,30.09,NNE,22,0.0,0.0,60,0.00,,,-99.99,Weather View 32 v70,2013-04-20 08:07:00,
2013-04-20 01:15:00,61.0,47.4,30.09,NNE,22,0.0,0.0,61,0.00,,,-99.99,Weather View 32 v70,2013-04-20 08:15:00,
2013-04-20 01:22:00,61.0,47.4,30.09,NNE,22,0.0,0.0,61,0.00,,,-99.99,Weather View 32 v70,2013-04-20 08:22:00,
2013-04-20 01:37:00,61.0,47.9,30.08,North,0,0.0,0.0,62,0.00,,,-99.99,Weather View 32 v70,2013-04-20 08:37:00,
2013-04-20 01:52:00,61.0,47.9,30.08,North,0,0.0,0.0,62,0.00,,,-99.99,Weather View 32 v70,2013-04-20 08:52:00,
2013-04-20 02:07:00,61.0,47.9,30.08,North,0,0.0,0.0,62,0.00,,,-99.99,Weather View 32 v70,2013-04-20 09:07:00,
2013-04-20 02:15:00,61.0,47.4,30.08,NNE,22,0.0,0.0,61,0.00,,,-99.99,Weather View 32 v70,2013-04-20 09:15:00,
2013-04-20 02:22:00,61.0,47.4,30.08,NNE,22,0.0,0.0,61,0.00,,,-99.99,Weather View 32 v70,2013-04-20 09:22:00,
2013-04-20 02:37:00,60.0,46.9,30.08,NNE,22,0.0,0.0,62,0.00,,,-99.99,Weather View 32 v70,2013-04-20 09:37:00,
2013-04-20 02:52:00,60.0,46.9,30.07,NNE,22,0.0,0.0,62,0.00,,,-99.99,Weather View 32 v70,2013-04-20 09:52:00,
2013-04-20 03:07:00,60.0,46.9,30.07,NNE,22,0.0,0.0,62,0.00,,,-99.99,Weather View 32 v70,2013-04-20 10:07:00,
2013-04-20 03:15:00,60.0,47.3,30.08,North,0,0.0,0.0,63,0.00,,,-99.99,Weather View 32 v70,2013-04-20 10:15:00,
2013-04-20 03:22:00,60.0,47.3,30.08,North,0,0.0,0.0,63,0.00,,,-99.99,Weather View 32 v70,2013-04-20 10:22:00,
2013-04-20 03:37:00,60.0,46.9,30.07,NNE,22,0.0,0.0,62,0.00,,,-99.99,Weather View 32 v70,2013-04-20 10:37:00,
2013-04-20 03:52:00,60.0,46.9,30.08,North,0,0.0,0.0,62,0.00,,,-99.99,Weather View 32 v70,2013-04-20 10:52:00,
2013-04-20 04:07:00,60.0,46.5,30.08,NNE,22,0.0,0.0,61,0.00,,,-99.99,Weather View 32 v70,2013-04-20 11:07:00,
2013-04-20 04:15:00,60.0,46.5,30.07,North,0,0.0,0.0,61,0.00,,,-99.99,Weather View 32 v70,2013-04-20 11:15:00,
2013-04-20 04:22:00,60.0,46.5,30.07,North,0,0.0,0.0,61,0.00,,,-99.99,Weather View 32 v70,2013-04-20 11:22:00,
2013-04-20 04:37:00,59.0,46.0,30.06,NNE,22,0.0,0.0,62,0.00,,,-99.99,Weather View 32 v70,2013-04-20 11:37:00,
2013-04-20 04:52:00,59.0,46.0,30.07,NNE,22,0.0,0.0,62,0.00,,,-99.99,Weather View 32 v70,2013-04-20 11:52:00,
2013-04-20 05:07:00,58.0,45.4,30.07,North,0,0.0,0.0,63,0.00,,,-99.99,Weather View 32 v70,2013-04-20 12:07:00,
2013-04-20 05:15:00,59.0,45.5,30.06,North,0,0.0,0.0,61,0.00,,,-99.99,Weather View 32 v70,2013-04-20 12:15:00,
2013-04-20 05:22:00,59.0,45.5,30.06,North,0,0.0,0.0,61,0.00,,,-99.99,Weather View 32 v70,2013-04-20 12:22:00,
2013-04-20 05:37:00,59.0,45.5,30.06,NNE,22,0.0,0.0,61,0.00,,,-99.99,Weather View 32 v70,2013-04-20 12:37:00,
2013-04-20 05:52:00,58.0,45.0,30.06,NNE,22,0.0,0.0,62,0.00,,,-99.99,Weather View 32 v70,2013-04-20 12:52:00,
2013-04-20 06:07:00,58.0,44.6,30.06,NNE,22,0.0,0.0,61,0.00,,,-99.99,Weather View 32 v70,2013-04-20 13:07:00,
2013-04-20 06:15:00,59.0,44.7,30.06,NNE,22,0.0,0.0,59,0.00,,,-99.99,Weather View 32 v70,2013-04-20 13:15:00,
2013-04-20 06:22:00,59.0,44.7,30.06,NNE,22,0.0,0.0,59,0.00,,,-99.99,Weather View 32 v70,2013-04-20 13:22:00,
2013-04-20 06:37:00,59.0,44.7,30.06,North,0,0.0,0.0,59,0.00,,,-99.99,Weather View 32 v70,2013-04-20 13:37:00,
2013-04-20 06:52:00,58.0,44.2,30.06,North,0,0.0,0.0,60,0.00,,,-99.99,Weather View 32 v70,2013-04-20 13:52:00,
2013-04-20 07:07:00,58.0,45.0,30.06,NNE,22,0.0,0.0,62,0.00,,,-99.99,Weather View 32 v70,2013-04-20 14:07:00,
2013-04-20 07:15:00,57.0,45.7,30.06,North,0,0.0,0.0,66,0.00,,,-99.99,Weather View 32 v70,2013-04-20 14:15:00,
2013-04-20 07:22:00,57.0,45.7,30.06,North,0,0.0,0.0,66,0.00,,,-99.99,Weather View 32 v70,2013-04-20 14:22:00,
2013-04-20 07:37:00,57.0,45.7,30.06,North,0,0.0,0.0,66,0.00,,,-99.99,Weather View 32 v70,2013-04-20 14:37:00,
2013-04-20 07:52:00,58.0,45.4,30.06,NNE,22,0.0,0.0,63,0.00,,,-99.99,Weather View 32 v70,2013-04-20 14:52:00,
2013-04-20 08:15:00,60.0,46.5,30.06,North,0,0.0,0.0,61,0.00,,,-99.99,Weather View 32 v70,2013-04-20 15:15:00,
2013-04-20 08:37:00,61.0,46.5,30.06,North,0,0.0,0.0,59,0.00,,,-99.99,Weather View 32 v70,2013-04-20 15:37:00,
2013-04-20 08:52:00,62.0,47.9,30.06,NNE,22,0.0,0.0,60,0.00,,,-99.99,Weather View 32 v70,2013-04-20 15:52:00,
2013-04-20 09:07:00,63.0,46.5,30.06,NNE,22,0.0,0.0,55,0.00,,,-99.99,Weather View 32 v70,2013-04-20 16:07:00,
2013-04-20 09:15:00,64.0,47.5,30.06,North,0,0.0,0.0,55,0.00,,,-99.99,Weather View 32 v70,2013-04-20 16:15:00,
2013-04-20 09:22:00,64.0,47.5,30.06,North,0,0.0,0.0,55,0.00,,,-99.99,Weather View 32 v70,2013-04-20 16:22:00,
2013-04-20 09:37:00,64.0,47.0,30.06,North,0,0.0,0.0,54,0.00,,,-99.99,Weather View 32 v70,2013-04-20 16:37:00,
2013-04-20 09:52:00,66.0,47.8,30.05,NNE,22,0.0,0.0,52,0.00,,,-99.99,Weather View 32 v70,2013-04-20 16:52:00,
2013-04-20 10:07:00,68.0,47.5,30.06,NNW,338,0.0,0.0,48,0.00,,,-99.99,Weather View 32 v70,2013-04-20 17:07:00,
2013-04-20 10:15:00,69.0,48.4,30.05,North,0,0.0,0.0,48,0.00,,,-99.99,Weather View 32 v70,2013-04-20 17:15:00,
2013-04-20 10:22:00,69.0,48.4,30.05,North,0,0.0,0.0,48,0.00,,,-99.99,Weather View 32 v70,2013-04-20 17:22:00,
2013-04-20 10:37:00,69.0,47.3,30.05,North,0,0.0,0.0,46,0.00,,,-99.99,Weather View 32 v70,2013-04-20 17:37:00,
2013-04-20 10:52:00,70.0,47.6,30.05,North,0,0.0,0.0,45,0.00,,,-99.99,Weather View 32 v70,2013-04-20 17:52:00,
2013-04-20 11:07:00,72.0,48.2,30.04,NNE,22,0.0,0.0,43,0.00,,,-99.99,Weather View 32 v70,2013-04-20 18:07:00,
2013-04-20 11:15:00,73.0,48.5,30.04,NNE,22,0.0,0.0,42,0.00,,,-99.99,Weather View 32 v70,2013-04-20 18:15:00,
2013-04-20 11:22:00,73.0,48.5,30.04,NNE,22,0.0,0.0,42,0.00,,,-99.99,Weather View 32 v70,2013-04-20 18:22:00,
2013-04-20 11:37:00,74.0,48.7,30.04,NNE,22,0.0,0.0,41,0.00,,,-99.99,Weather View 32 v70,2013-04-20 18:37:00,
2013-04-20 11:52:00,75.0,47.6,30.04,North,0,0.0,0.0,38,0.00,,,-99.99,Weather View 32 v70,2013-04-20 18:52:00,
2013-04-20 12:07:00,76.0,47.0,30.03,North,0,0.0,0.0,36,0.00,,,-99.99,Weather View 32 v70,2013-04-20 19:07:00,
2013-04-20 12:15:00,77.0,46.4,30.03,North,0,0.0,0.0,34,0.00,,,-99.99,Weather View 32 v70,2013-04-20 19:15:00,
2013-04-20 12:22:00,77.0,46.4,30.03,North,0,0.0,0.0,34,0.00,,,-99.99,Weather View 32 v70,2013-04-20 19:22:00,
2013-04-20 12:37:00,79.0,45.7,30.02,North,0,0.0,0.0,31,0.00,,,-99.99,Weather View 32 v70,2013-04-20 19:37:00,
2013-04-20 12:52:00,79.0,44.8,30.01,NNE,22,0.0,0.0,30,0.00,,,-99.99,Weather View 32 v70,2013-04-20 19:52:00,
2013-04-20 13:07:00,79.0,44.8,30.01,NNE,22,0.0,0.0,30,0.00,,,-99.99,Weather View 32 v70,2013-04-20 20:07:00,
2013-04-20 13:22:00,80.0,45.7,30.00,NNW,338,0.0,0.0,30,0.00,,,-99.99,Weather View 32 v70,2013-04-20 20:22:00,
2013-04-20 13:37:00,82.0,44.6,30.01,North,0,0.0,0.0,27,0.00,,,-99.99,Weather View 32 v70,2013-04-20 20:37:00,
2013-04-20 13:52:00,82.0,44.6,30.01,NNW,338,0.0,0.0,27,0.00,,,-99.99,Weather View 32 v70,2013-04-20 20:52:00,
2013-04-20 14:07:00,82.0,44.6,30.00,NNW,338,0.0,0.0,27,0.00,,,-99.99,Weather View 32 v70,2013-04-20 21:07:00,
2013-04-20 14:22:00,83.0,48.3,30.00,NW,315,0.0,0.0,30,0.00,,,-99.99,Weather View 32 v70,2013-04-20 21:22:00,
2013-04-20 14:37:00,82.0,50.8,30.00,North,0,0.0,0.0,34,0.00,,,-99.99,Weather View 32 v70,2013-04-20 21:37:00,
2013-04-20 14:52:00,82.0,48.3,30.00,North,0,0.0,0.0,31,0.00,,,-99.99,Weather View 32 v70,2013-04-20 21:52:00,
2013-04-20 15:07:00,80.0,49.8,30.00,NNE,22,0.0,0.0,35,0.00,,,-99.99,Weather View 32 v70,2013-04-20 22:07:00,
2013-04-20 15:22:00,79.0,49.7,29.99,North,0,0.0,0.0,36,0.00,,,-99.99,Weather View 32 v70,2013-04-20 22:22:00,
2013-04-20 15:37:00,78.0,48.8,29.99,North,0,0.0,0.0,36,0.00,,,-99.99,Weather View 32 v70,2013-04-20 22:37:00,
2013-04-20 15:38:00,78.0,48.8,29.99,North,0,0.0,0.0,36,0.00,,,-99.99,Weather View 32 v70,2013-04-20 22:38:00,
2013-04-20 15:52:00,78.0,48.8,30.00,North,0,0.0,0.0,36,0.00,,,-99.99,Weather View 32 v70,2013-04-20 22:52:00,
2013-04-20 16:07:00,78.0,48.8,29.99,NNE,22,0.0,0.0,36,0.00,,,-99.99,Weather View 32 v70,2013-04-20 23:07:00,
2013-04-20 16:22:00,78.0,49.5,29.99,NNE,22,0.0,0.0,37,0.00,,,-99.99,Weather View 32 v70,2013-04-20 23:22:00,
2013-04-20 16:37:00,78.0,49.5,29.99,NNE,22,0.0,0.0,37,0.00,,,-99.99,Weather View 32 v70,2013-04-20 23:37:00,
2013-04-20 16:38:00,78.0,49.5,29.99,NNE,22,0.0,0.0,37,0.00,,,-99.99,Weather View 32 v70,2013-04-20 23:38:00,
2013-04-20 16:52:00,77.0,47.2,29.99,NNE,22,0.0,0.0,35,0.00,,,-99.99,Weather View 32 v70,2013-04-20 23:52:00,
2013-04-20 17:07:00,77.0,47.9,29.99,NNE,22,0.0,0.0,36,0.00,,,-99.99,Weather View 32 v70,2013-04-21 00:07:00,
2013-04-20 17:22:00,77.0,46.4,30.07,North,0,0.0,0.0,34,0.00,,,-99.99,Weather View 32 v70,2013-04-21 00:22:00,
2013-04-20 17:37:00,77.0,47.2,29.99,North,0,0.0,0.0,35,0.00,,,-99.99,Weather View 32 v70,2013-04-21 00:37:00,
2013-04-20 17:52:00,76.0,47.0,29.99,North,0,0.0,0.0,36,0.00,,,-99.99,Weather View 32 v70,2013-04-21 00:52:00,
2013-04-20 18:07:00,75.0,46.2,29.99,North,0,0.0,0.0,36,0.00,,,-99.99,Weather View 32 v70,2013-04-21 01:07:00,
2013-04-20 18:22:00,74.0,46.0,29.99,North,0,0.0,0.0,37,0.00,,,-99.99,Weather View 32 v70,2013-04-21 01:22:00,
2013-04-20 18:37:00,74.0,47.4,29.98,North,0,0.0,0.0,39,0.00,,,-99.99,Weather View 32 v70,2013-04-21 01:37:00,
2013-04-20 18:40:00,74.0,47.4,29.98,North,0,0.0,0.0,39,0.00,,,-99.99,Weather View 32 v70,2013-04-21 01:40:00,
2013-04-20 18:52:00,73.0,47.2,29.99,North,0,0.0,0.0,40,0.00,,,-99.99,Weather View 32 v70,2013-04-21 01:52:00,
2013-04-20 19:07:00,73.0,47.8,29.99,NNE,22,0.0,0.0,41,0.00,,,-99.99,Weather View 32 v70,2013-04-21 02:07:00,
2013-04-20 19:22:00,71.0,47.3,29.99,North,0,0.0,0.0,43,0.00,,,-99.99,Weather View 32 v70,2013-04-21 02:22:00,
2013-04-20 19:30:00,69.0,47.9,29.98,North,0,0.0,0.0,47,0.00,,,-99.99,Weather View 32 v70,2013-04-21 02:30:00,
2013-04-20 19:37:00,69.0,47.9,29.98,North,0,0.0,0.0,47,0.00,,,-99.99,Weather View 32 v70,2013-04-21 02:37:00,
2013-04-20 19:52:00,67.0,48.7,29.99,NNE,22,0.0,0.0,52,0.00,,,-99.99,Weather View 32 v70,2013-04-21 02:52:00,
2013-04-20 20:07:00,66.0,48.3,29.99,NNW,338,0.0,0.0,53,0.00,,,-99.99,Weather View 32 v70,2013-04-21 03:07:00,
2013-04-20 20:22:00,65.0,47.9,29.99,North,0,0.0,0.0,54,0.00,,,-99.99,Weather View 32 v70,2013-04-21 03:22:00,
2013-04-20 20:30:00,64.0,46.5,30.00,North,0,0.0,0.0,53,0.00,,,-99.99,Weather View 32 v70,2013-04-21 03:30:00,
2013-04-20 20:37:00,64.0,46.5,30.00,North,0,0.0,0.0,53,0.00,,,-99.99,Weather View 32 v70,2013-04-21 03:37:00,
2013-04-20 20:52:00,63.0,47.0,30.00,NNE,22,0.0,0.0,56,0.00,,,-99.99,Weather View 32 v70,2013-04-21 03:52:00,
2013-04-20 21:07:00,62.0,48.4,30.01,NNE,22,0.0,0.0,61,0.00,,,-99.99,Weather View 32 v70,2013-04-21 04:07:00,
2013-04-20 21:22:00,60.0,47.8,30.01,North,0,0.0,0.0,64,0.00,,,-99.99,Weather View 32 v70,2013-04-21 04:22:00,
2013-04-20 21:30:00,60.0,48.2,30.01,NNE,22,0.0,0.0,65,0.00,,,-99.99,Weather View 32 v70,2013-04-21 04:30:00,
2013-04-20 21:37:00,60.0,48.2,30.01,NNE,22,0.0,0.0,65,0.00,,,-99.99,Weather View 32 v70,2013-04-21 04:37:00,
2013-04-20 21:52:00,62.0,46.1,30.00,NNE,22,0.0,0.0,56,0.00,,,-99.99,Weather View 32 v70,2013-04-21 04:52:00,
2013-04-20 22:07:00,62.0,45.6,30.00,North,0,0.0,0.0,55,0.00,,,-99.99,Weather View 32 v70,2013-04-21 05:07:00,
2013-04-20 22:22:00,61.0,46.5,30.00,NNE,22,0.0,0.0,59,0.00,,,-99.99,Weather View 32 v70,2013-04-21 05:22:00,
2013-04-20 22:30:00,60.0,47.8,30.00,NNE,22,0.0,0.0,64,0.00,,,-99.99,Weather View 32 v70,2013-04-21 05:30:00,
2013-04-20 22:37:00,60.0,47.8,30.00,NNE,22,0.0,0.0,64,0.00,,,-99.99,Weather View 32 v70,2013-04-21 05:37:00,
2013-04-20 22:52:00,60.0,47.8,30.00,NNE,22,0.0,0.0,64,0.00,,,-99.99,Weather View 32 v70,2013-04-21 05:52:00,
2013-04-20 23:07:00,59.0,48.0,30.00,NNW,338,0.0,0.0,67,0.00,,,-99.99,Weather View 32 v70,2013-04-21 06:07:00,
2013-04-20 23:22:00,57.0,47.3,30.01,NNW,338,0.0,0.0,70,0.00,,,-99.99,Weather View 32 v70,2013-04-21 06:22:00,
2013-04-20 23:30:00,59.0,48.4,30.01,NNE,22,0.0,0.0,68,0.00,,,-99.99,Weather View 32 v70,2013-04-21 06:30:00,
2013-04-20 23:37:00,59.0,48.4,30.01,NNE,22,0.0,0.0,68,0.00,,,-99.99,Weather View 32 v70,2013-04-21 06:37:00,
2013-04-20 23:52:00,58.0,47.1,30.01,NNW,338,0.0,0.0,67,0.00,,,-99.99,Weather View 32 v70,2013-04-21 06:52:00,